Time;durP1;ratioP1;P1;durP2;ratioP2;P2;SDS_P1;SDS_P2;PMS_P1;PMS_P2;Temp;Humidity;BMP_temperature;BMP_pressure;BME280_temperature;BME280_humidity;BME280_pressure;Samples;Min_cycle;Max_cycle;Signal;HPM_P1;HPM_P2
2022/07/21 00:01:57;;;;;;;9.18;6.53;;;;;;;26.01;52.55;100113.22;5092749;28;20055;-70
2022/07/21 00:04:24;;;;;;;10.80;6.65;;;;;;;25.98;52.74;100101.97;5091382;28;20058;-70
2022/07/21 00:06:51;;;;;;;9.68;6.65;;;;;;;25.95;52.51;100094.22;5091202;28;20056;-71
2022/07/21 00:09:17;;;;;;;10.13;7.07;;;;;;;25.91;53.32;100088.38;5092310;28;20128;-70
2022/07/21 00:11:44;;;;;;;11.20;7.28;;;;;;;25.88;53.29;100057.22;5091160;28;20059;-70
2022/07/21 00:14:11;;;;;;;8.55;6.20;;;;;;;25.88;53.36;100040.19;5091293;28;20461;-70
2022/07/21 00:16:39;;;;;;;9.57;6.63;;;;;;;25.85;53.38;100033.28;5090878;28;20491;-71
2022/07/21 00:19:06;;;;;;;9.93;6.57;;;;;;;25.84;53.16;100020.00;5091769;28;20117;-70
2022/07/21 00:21:33;;;;;;;10.18;6.22;;;;;;;25.81;53.19;99986.16;5092122;28;20052;-70
2022/07/21 00:24:00;;;;;;;11.93;6.63;;;;;;;25.79;53.47;99961.19;5092320;28;20056;-70
2022/07/21 00:26:27;;;;;;;10.55;7.00;;;;;;;25.73;53.11;99972.72;5091011;28;20055;-70
2022/07/21 00:28:53;;;;;;;11.48;7.32;;;;;;;25.67;53.41;99990.47;5091923;28;20043;-70
2022/07/21 00:31:21;;;;;;;10.88;7.13;;;;;;;25.61;53.45;99992.03;5090655;28;20101;-70
2022/07/21 00:33:50;;;;;;;8.95;6.45;;;;;;;25.56;54.03;99967.47;5091776;28;20055;-70
2022/07/21 00:36:19;;;;;;;11.93;7.43;;;;;;;25.53;53.64;99935.47;5092068;28;20052;-70
2022/07/21 00:38:46;;;;;;;11.55;7.13;;;;;;;25.49;53.83;99939.56;5090673;28;20124;-70
2022/07/21 00:41:13;;;;;;;8.32;6.63;;;;;;;25.44;54.09;99925.78;5090783;28;20441;-69
2022/07/21 00:43:39;;;;;;;9.30;6.95;;;;;;;25.38;54.00;99917.41;5091856;28;20041;-69
2022/07/21 00:46:06;;;;;;;10.68;7.32;;;;;;;25.34;54.29;99918.78;5090605;28;20055;-70
2022/07/21 00:48:33;;;;;;;11.63;7.60;;;;;;;25.30;54.35;99920.16;5090608;28;20040;-70
2022/07/21 00:51:00;;;;;;;10.50;7.70;;;;;;;25.24;54.19;99916.31;5091768;28;20434;-70
2022/07/21 00:53:26;;;;;;;10.13;7.38;;;;;;;25.21;54.49;99921.25;5091551;28;20048;-69
2022/07/21 00:55:53;;;;;;;11.80;7.32;;;;;;;25.18;54.42;99922.44;5090475;28;20451;-70
2022/07/21 00:58:22;;;;;;;11.32;7.55;;;;;;;25.14;55.08;99917.59;5091431;28;20101;-70
2022/07/21 01:00:48;;;;;;;8.50;7.03;;;;;;;25.11;54.62;99925.00;5090120;28;20051;-69
2022/07/21 01:03:15;;;;;;;9.73;7.50;;;;;;;25.06;55.18;99929.25;5090290;28;20044;-69
2022/07/21 01:05:42;;;;;;;9.05;7.50;;;;;;;25.03;55.06;99925.06;5091296;28;20052;-71
2022/07/21 01:08:09;;;;;;;12.27;7.63;;;;;;;25.00;55.29;99917.34;5090166;28;20488;-70
2022/07/21 01:10:36;;;;;;;10.85;7.82;;;;;;;24.97;55.15;99912.34;5089946;28;20052;-70
2022/07/21 01:13:02;;;;;;;9.48;7.25;;;;;;;24.95;55.40;99915.19;5091442;28;20060;-70
2022/07/21 01:15:29;;;;;;;12.15;8.02;;;;;;;24.94;55.30;99920.75;5091302;28;20059;-70
2022/07/21 01:17:57;;;;;;;9.68;7.50;;;;;;;24.90;55.74;99936.44;5091395;28;20044;-69
2022/07/21 01:20:24;;;;;;;8.00;6.53;;;;;;;24.89;55.58;99950.06;5090954;28;20063;-70
2022/07/21 01:22:55;;;;;;;10.75;8.60;;;;;;;24.87;55.99;99954.78;5090946;28;20059;-69
2022/07/21 01:25:22;;;;;;;12.13;7.57;;;;;;;24.86;56.15;99964.72;5091215;28;20109;-69
2022/07/21 01:27:49;;;;;;;11.25;8.30;;;;;;;24.87;55.93;99974.47;5089691;28;20683;-69
2022/07/21 01:30:16;;;;;;;12.25;8.80;;;;;;;24.87;56.06;99976.31;5089928;28;20078;-69
2022/07/21 01:32:43;;;;;;;11.27;9.15;;;;;;;24.88;56.33;99975.31;5091210;28;20044;-69
2022/07/21 01:35:13;;;;;;;10.38;7.93;;;;;;;24.87;57.25;99982.56;5091147;28;20062;-69
2022/07/21 01:37:44;;;;;;;12.85;10.40;;;;;;;24.87;56.42;99993.31;5089764;28;20100;-69
2022/07/21 01:42:58;;;;;;;14.23;9.60;;;;;;;24.85;56.02;99987.25;5090956;28;20054;-69
2022/07/21 01:45:25;;;;;;;12.68;9.63;;;;;;;24.84;56.25;99994.53;5089778;28;20055;-69
2022/07/21 01:47:52;;;;;;;12.35;9.75;;;;;;;24.80;56.56;99985.09;5089660;28;20101;-70
2022/07/21 01:50:20;;;;;;;11.65;8.73;;;;;;;24.77;56.08;99985.44;5090479;28;20058;-69
2022/07/21 01:52:47;;;;;;;12.13;8.63;;;;;;;24.74;56.60;99983.06;5089477;28;20047;-70
2022/07/21 01:55:14;;;;;;;14.10;8.75;;;;;;;24.71;56.51;99980.75;5090821;28;20097;-69
2022/07/21 01:57:41;;;;;;;9.77;7.35;;;;;;;24.69;56.46;99982.78;5090806;28;20056;-70
2022/07/21 02:00:08;;;;;;;11.27;8.65;;;;;;;24.67;56.96;99977.56;5090549;28;20492;-69
2022/07/21 02:02:35;;;;;;;13.98;8.98;;;;;;;24.65;56.61;99979.59;5089335;28;20048;-69
2022/07/21 02:05:02;;;;;;;11.80;8.55;;;;;;;24.63;56.67;99980.78;5090610;28;20048;-70
2022/07/21 02:07:28;;;;;;;9.75;8.13;;;;;;;24.60;56.58;99977.41;5089248;28;20484;-69
2022/07/21 02:09:55;;;;;;;10.75;8.52;;;;;;;24.57;56.99;99971.56;5089228;28;20089;-70
2022/07/21 02:12:21;;;;;;;12.32;8.50;;;;;;;24.54;56.94;99966.50;5090634;28;20060;-70
2022/07/21 02:14:48;;;;;;;12.02;8.63;;;;;;;24.51;56.95;99966.88;5090734;28;20056;-71
2022/07/21 02:17:15;;;;;;;11.18;8.48;;;;;;;24.47;56.96;99958.31;5090490;28;20048;-70
2022/07/21 02:19:41;;;;;;;14.60;9.35;;;;;;;24.45;57.40;99958.47;5090160;28;20529;-70
2022/07/21 02:22:08;;;;;;;9.35;7.45;;;;;;;24.43;57.19;99962.34;5090176;28;20585;-69
2022/07/21 02:24:35;;;;;;;10.88;7.85;;;;;;;24.38;57.31;99954.81;5090649;28;20048;-70
2022/07/21 02:27:02;;;;;;;10.98;7.97;;;;;;;24.37;57.35;99938.84;5090340;28;20500;-70
2022/07/21 02:29:28;;;;;;;9.35;7.85;;;;;;;24.36;57.85;99938.00;5089793;28;20056;-69
2022/07/21 02:31:55;;;;;;;9.15;7.82;;;;;;;24.34;57.55;99940.84;5090427;28;20060;-69
2022/07/21 02:34:21;;;;;;;13.02;8.95;;;;;;;24.36;57.86;99940.69;5090202;28;20504;-70
2022/07/21 02:36:48;;;;;;;11.05;8.57;;;;;;;24.35;57.79;99936.31;5090243;28;20101;-70
2022/07/21 02:39:15;;;;;;;11.52;8.73;;;;;;;24.34;57.92;99932.78;5088626;28;20052;-69
2022/07/21 02:41:42;;;;;;;11.73;8.63;;;;;;;24.35;57.99;99933.63;5091914;28;20135;-70
2022/07/21 02:44:09;;;;;;;12.35;9.32;;;;;;;24.33;57.98;99920.34;5094425;28;20122;-70
2022/07/21 02:46:35;;;;;;;9.25;8.13;;;;;;;24.32;57.79;99921.38;5094178;28;20052;-69
2022/07/21 02:49:02;;;;;;;8.85;7.95;;;;;;;24.32;57.64;99931.28;5093713;28;20097;-70
2022/07/21 02:51:28;;;;;;;12.90;9.25;;;;;;;24.31;57.66;99943.91;5094250;28;20109;-70
2022/07/21 02:53:55;;;;;;;11.93;8.85;;;;;;;24.30;57.61;99934.16;5092841;28;20586;-70
2022/07/21 02:56:22;;;;;;;10.68;8.70;;;;;;;24.28;58.15;99932.63;5092806;28;20060;-70
2022/07/21 02:58:48;;;;;;;10.63;8.85;;;;;;;24.25;57.63;99931.13;5093569;28;20188;-70
2022/07/21 03:01:18;;;;;;;11.00;9.10;;;;;;;24.22;58.33;99931.47;5093894;28;20048;-69
2022/07/21 03:03:46;;;;;;;10.80;8.57;;;;;;;24.19;58.19;99921.09;5092376;28;20052;-69
2022/07/21 03:06:12;;;;;;;11.70;8.73;;;;;;;24.15;58.44;99922.44;5094014;28;20136;-70
2022/07/21 03:08:39;;;;;;;11.05;8.95;;;;;;;24.12;58.52;99923.63;5093618;28;20098;-70
2022/07/21 03:11:06;;;;;;;11.07;9.20;;;;;;;24.08;58.31;99928.47;5092520;28;20036;-70
2022/07/21 03:13:33;;;;;;;11.13;8.82;;;;;;;24.06;58.40;99929.66;5092659;28;20070;-70
2022/07/21 03:16:00;;;;;;;10.32;8.52;;;;;;;24.02;58.67;99929.16;5093667;28;20044;-70
2022/07/21 03:18:26;;;;;;;10.98;9.20;;;;;;;23.96;58.28;99924.47;5091930;28;20065;-70
2022/07/21 03:20:53;;;;;;;13.85;9.55;;;;;;;23.89;58.66;99928.84;5093855;28;20047;-70
2022/07/21 03:23:20;;;;;;;10.50;8.25;;;;;;;23.79;59.02;99921.81;5093255;28;20054;-70
2022/07/21 03:25:46;;;;;;;9.55;8.45;;;;;;;23.71;58.73;99921.84;5093573;28;20112;-70
2022/07/21 03:28:13;;;;;;;9.45;6.68;;;;;;;23.63;58.42;99919.16;5093168;28;20504;-70
2022/07/21 03:30:39;;;;;;;6.60;6.00;;;;;;;23.55;58.82;99911.94;5093108;28;20040;-70
2022/07/21 03:33:06;;;;;;;9.10;6.10;;;;;;;23.45;58.30;99925.53;5092036;28;20121;-70
2022/07/21 03:35:35;;;;;;;6.05;5.47;;;;;;;23.35;58.62;99923.00;5092037;28;20205;-70
2022/07/21 03:38:02;;;;;;;6.72;6.00;;;;;;;23.25;58.74;99931.19;5091986;28;20098;-69
2022/07/21 03:40:31;;;;;;;8.85;6.05;;;;;;;23.15;59.33;99941.25;5093150;28;20052;-70
2022/07/21 03:43:00;;;;;;;10.75;5.53;;;;;;;23.07;59.16;99930.50;5093063;28;20114;-71
2022/07/21 03:45:30;;;;;;;6.20;5.45;;;;;;;22.98;59.32;99933.19;5092962;28;20826;-70
2022/07/21 03:47:58;;;;;;;8.25;5.10;;;;;;;22.90;59.58;99934.00;5092969;28;20044;-70
2022/07/21 03:50:26;;;;;;;6.80;5.28;;;;;;;22.82;59.29;99942.03;5092751;28;20484;-69
2022/07/21 03:52:53;;;;;;;6.28;5.57;;;;;;;22.72;59.28;99938.66;5090505;28;20056;-69
2022/07/21 03:55:20;;;;;;;9.32;5.63;;;;;;;22.61;59.80;99931.75;5091717;28;20059;-70
2022/07/21 03:57:59;;;;;;;6.75;5.93;;;;;;;22.46;61.49;99937.69;5091614;28;20052;-70
2022/07/21 04:00:32;;;;;;;5.50;4.97;;;;;;;22.34;61.20;99947.84;5093143;28;20496;-69
2022/07/21 04:02:59;;;;;;;;;;;;;;;22.24;59.64;99953.31;5091902;28;20039;-70
2022/07/21 04:05:27;;;;;;;6.70;5.32;;;;;;;22.19;60.07;99963.69;5091662;28;20368;-70
2022/07/21 04:07:54;;;;;;;8.88;5.53;;;;;;;22.08;60.80;99958.59;5091262;28;20058;-70
2022/07/21 04:10:25;;;;;;;5.60;5.10;;;;;;;21.97;61.66;99949.81;5090974;28;20051;-70
2022/07/21 04:12:53;;;;;;;4.65;3.78;;;;;;;21.93;61.93;99940.41;5092527;28;20550;-70
2022/07/21 04:15:20;;;;;;;7.45;3.03;;;;;;;21.90;62.35;99950.63;5091176;28;20469;-71
2022/07/21 04:17:48;;;;;;;3.70;3.25;;;;;;;21.87;62.31;99944.56;5091040;28;20480;-71
2022/07/21 04:20:15;;;;;;;4.35;3.63;;;;;;;21.85;62.88;99948.41;5090810;28;20492;-72
2022/07/21 04:22:43;;;;;;;4.72;4.30;;;;;;;21.84;63.04;99947.56;5092131;28;20056;-72
2022/07/21 04:25:11;;;;;;;5.57;4.22;;;;;;;21.83;62.98;99950.41;5090935;28;20070;-71
2022/07/21 04:27:39;;;;;;;3.85;3.55;;;;;;;21.81;63.21;99947.88;5092519;28;20129;-72
2022/07/21 04:30:08;;;;;;;4.10;3.70;;;;;;;21.81;64.27;99947.03;5091912;28;20060;-72
2022/07/21 04:32:35;;;;;;;4.60;4.20;;;;;;;21.82;63.67;99944.19;5092052;28;20052;-71
2022/07/21 04:35:04;;;;;;;4.07;3.72;;;;;;;21.85;63.89;99929.63;5091868;28;20040;-71
2022/07/21 04:37:31;;;;;;;4.50;4.10;;;;;;;21.86;63.46;99928.63;5091932;28;20056;-72
2022/07/21 04:39:58;;;;;;;4.10;3.70;;;;;;;21.87;63.69;99939.19;5091636;28;20113;-71
2022/07/21 04:42:25;;;;;;;5.43;4.13;;;;;;;21.89;63.27;99948.91;5090616;28;20077;-71
2022/07/21 04:44:51;;;;;;;4.53;4.13;;;;;;;21.90;63.50;99954.13;5091921;28;20055;-70
2022/07/21 04:47:18;;;;;;;5.00;4.00;;;;;;;21.92;63.81;99954.81;5090495;28;20121;-71
2022/07/21 04:49:45;;;;;;;4.25;3.65;;;;;;;21.96;63.59;99955.34;5090274;28;20051;-72
2022/07/21 04:52:11;;;;;;;4.13;3.72;;;;;;;21.98;63.75;99959.53;5091728;28;20059;-71
2022/07/21 04:54:38;;;;;;;3.95;3.38;;;;;;;22.02;63.49;99961.91;5091717;28;20056;-72
2022/07/21 04:57:05;;;;;;;3.97;3.20;;;;;;;22.04;63.10;99965.25;5091751;28;20452;-71
2022/07/21 04:59:33;;;;;;;5.05;4.05;;;;;;;22.05;63.27;99967.78;5090084;28;20087;-71
2022/07/21 05:02:00;;;;;;;5.18;3.78;;;;;;;22.09;63.70;99966.47;5090386;28;20044;-72
2022/07/21 05:04:27;;;;;;;4.53;3.90;;;;;;;22.12;63.38;99966.16;5089909;28;20406;-71
2022/07/21 05:06:54;;;;;;;7.20;4.20;;;;;;;22.17;63.56;99957.66;5090702;28;20055;-70
2022/07/21 05:09:21;;;;;;;6.80;4.32;;;;;;;22.21;63.49;99959.00;5091465;28;20051;-69
2022/07/21 05:11:48;;;;;;;7.50;4.38;;;;;;;22.24;63.49;99964.06;5090170;28;20094;-71
2022/07/21 05:14:14;;;;;;;4.30;3.90;;;;;;;22.29;63.18;99960.06;5091559;28;20114;-71
2022/07/21 05:16:42;;;;;;;4.13;3.70;;;;;;;22.31;62.97;99950.03;5091362;28;20131;-72
2022/07/21 05:19:09;;;;;;;5.57;4.28;;;;;;;22.33;63.02;99945.31;5089633;28;20062;-71
2022/07/21 05:21:36;;;;;;;4.85;4.32;;;;;;;22.33;62.82;99943.50;5091645;28;20048;-72
2022/07/21 05:24:03;;;;;;;7.05;4.70;;;;;;;22.34;62.85;99939.81;5090981;28;20056;-71
2022/07/21 05:26:29;;;;;;;5.45;4.95;;;;;;;22.34;62.97;99939.81;5091332;28;20109;-72
2022/07/21 05:28:56;;;;;;;6.05;4.95;;;;;;;22.35;62.58;99935.28;5091181;28;20078;-79
2022/07/21 05:31:23;;;;;;;8.10;5.47;;;;;;;22.33;62.71;99934.59;5088666;28;20052;-70
2022/07/21 05:33:49;;;;;;;5.63;4.97;;;;;;;22.30;62.49;99938.44;5089386;28;20054;-71
2022/07/21 05:36:18;;;;;;;5.70;5.20;;;;;;;22.28;62.45;99945.81;5090874;28;20093;-71
2022/07/21 05:38:45;;;;;;;8.02;5.47;;;;;;;22.26;62.40;99945.13;5089417;28;20142;-71
2022/07/21 05:41:12;;;;;;;6.30;5.40;;;;;;;22.22;62.43;99939.25;5090667;28;20052;-70
2022/07/21 05:43:38;;;;;;;5.88;5.00;;;;;;;22.20;62.90;99946.59;5089713;28;20044;-71
2022/07/21 05:46:05;;;;;;;8.38;5.28;;;;;;;22.19;63.16;99952.97;5088638;28;20056;-71
2022/07/21 05:48:32;;;;;;;6.03;5.32;;;;;;;22.20;63.45;99951.13;5090069;28;20539;-71
2022/07/21 05:50:58;;;;;;;6.20;5.57;;;;;;;22.20;63.19;99954.63;5089421;28;20488;-71
2022/07/21 05:53:25;;;;;;;6.20;5.32;;;;;;;22.22;63.48;99958.03;5090809;28;20056;-71
2022/07/21 05:55:52;;;;;;;8.73;5.97;;;;;;;22.25;63.34;99960.34;5090992;28;20718;-71
2022/07/21 05:58:22;;;;;;;6.97;6.28;;;;;;;22.28;63.07;99971.78;5089329;28;20090;-71
2022/07/21 06:01:08;;;;;;;7.82;6.47;;;;;;;22.26;63.53;99978.16;5090475;28;20083;-71
2022/07/21 06:03:41;;;;;;;6.55;5.93;;;;;;;22.28;63.02;99974.47;5090770;28;20043;-71
2022/07/21 06:06:09;;;;;;;8.02;6.88;;;;;;;22.29;63.64;99976.13;5090792;28;20056;-71
2022/07/21 06:08:41;;;;;;;7.80;6.13;;;;;;;22.30;63.89;99992.06;5089365;28;20048;-71
2022/07/21 06:11:11;;;;;;;6.53;5.93;;;;;;;22.34;63.40;99995.28;5090525;28;20086;-71
2022/07/21 06:13:38;;;;;;;6.47;5.78;;;;;;;22.37;63.24;99995.81;5089504;28;20059;-70
2022/07/21 06:16:06;;;;;;;7.00;6.30;;;;;;;22.41;63.35;100000.84;5091543;28;20536;-71
2022/07/21 06:18:33;;;;;;;6.53;5.93;;;;;;;22.42;62.98;99992.63;5094816;28;20102;-70
2022/07/21 06:21:00;;;;;;;8.27;6.95;;;;;;;22.45;63.00;100004.88;5093382;28;20048;-70
2022/07/21 06:23:27;;;;;;;7.35;6.72;;;;;;;22.47;62.91;100009.09;5094676;28;20052;-70
2022/07/21 06:25:54;;;;;;;8.15;7.38;;;;;;;22.48;62.82;100016.16;5092976;28;20093;-70
2022/07/21 06:28:21;;;;;;;7.60;6.55;;;;;;;22.50;63.03;100016.81;5094291;28;20492;-71
2022/07/21 06:30:49;;;;;;;8.25;7.35;;;;;;;22.50;62.70;100008.78;5094529;28;20102;-71
2022/07/21 06:33:16;;;;;;;8.85;7.97;;;;;;;22.50;62.83;100016.81;5093353;28;20087;-70
2022/07/21 06:35:43;;;;;;;8.10;7.30;;;;;;;22.51;62.98;100015.81;5094422;28;20519;-71
2022/07/21 06:38:10;;;;;;;8.00;7.20;;;;;;;22.51;63.10;100018.50;5094216;28;20051;-70
2022/07/21 06:40:39;;;;;;;9.43;8.52;;;;;;;22.53;63.28;100010.28;5094376;28;20162;-70
2022/07/21 06:43:05;;;;;;;9.13;8.27;;;;;;;22.53;63.38;100012.97;5094247;28;20044;-71
2022/07/21 06:45:52;;;;;;;9.07;8.18;;;;;;;22.56;63.29;100009.16;5094544;28;20483;-70
2022/07/21 06:48:21;;;;;;;9.45;8.45;;;;;;;22.58;63.39;100015.22;5093994;28;20113;-70
2022/07/21 06:50:48;;;;;;;9.25;8.35;;;;;;;22.59;63.15;100009.69;5094079;28;20048;-70
2022/07/21 06:53:15;;;;;;;9.00;8.00;;;;;;;22.60;63.12;100011.38;5094316;28;20066;-70
2022/07/21 06:55:41;;;;;;;9.80;8.45;;;;;;;22.60;62.91;100014.06;5094109;28;20101;-71
2022/07/21 06:58:12;;;;;;;9.20;8.30;;;;;;;22.62;63.27;100017.41;5092477;28;20078;-71
2022/07/21 07:00:39;;;;;;;9.90;8.90;;;;;;;22.62;63.08;100020.09;5093985;28;20052;-71
2022/07/21 07:03:06;;;;;;;10.05;8.73;;;;;;;22.62;63.05;100016.59;5092560;28;20051;-70
2022/07/21 07:05:33;;;;;;;10.10;9.00;;;;;;;22.62;63.40;100019.28;5093814;28;20056;-71
2022/07/21 07:08:00;;;;;;;10.60;9.60;;;;;;;22.61;63.18;100022.97;5092725;28;20435;-70
2022/07/21 07:10:27;;;;;;;9.57;8.65;;;;;;;22.62;63.13;100021.97;5093976;28;20052;-71
2022/07/21 07:12:54;;;;;;;11.77;10.57;;;;;;;22.62;63.19;100021.97;5093703;28;20056;-72
2022/07/21 07:15:41;;;;;;;9.90;8.95;;;;;;;22.63;62.98;100021.78;5092909;28;20150;-71
2022/07/21 07:18:08;;;;;;;14.63;11.43;;;;;;;22.63;63.39;100027.16;5093435;28;20051;-72
2022/07/21 07:20:35;;;;;;;11.90;10.73;;;;;;;22.64;63.58;100017.25;5092608;28;20062;-71
2022/07/21 07:23:03;;;;;;;12.03;10.90;;;;;;;22.67;63.55;100021.47;5093672;28;20442;-71
2022/07/21 07:25:30;;;;;;;13.13;11.63;;;;;;;22.68;63.62;100028.53;5092238;28;20092;-70
2022/07/21 07:27:57;;;;;;;14.45;12.77;;;;;;;22.71;63.54;100025.50;5093313;28;20071;-70
2022/07/21 07:30:24;;;;;;;14.90;13.40;;;;;;;22.74;63.68;100022.50;5093333;28;20063;-70
2022/07/21 07:32:50;;;;;;;17.05;15.25;;;;;;;22.78;63.53;100024.72;5093516;28;20055;-69
2022/07/21 07:35:17;;;;;;;15.40;13.88;;;;;;;22.82;63.66;100019.84;5093300;28;20048;-69
2022/07/21 07:37:45;;;;;;;13.88;12.38;;;;;;;22.85;64.00;100014.19;5093435;28;20633;-70
2022/07/21 07:40:15;;;;;;;16.05;14.27;;;;;;;22.89;63.94;100020.06;5093069;28;20055;-69
2022/07/21 07:42:42;;;;;;;15.68;13.68;;;;;;;22.95;63.87;100011.34;5093237;28;20054;-69
2022/07/21 07:45:10;;;;;;;19.00;14.25;;;;;;;22.99;64.01;100018.06;5092974;28;20056;-70
2022/07/21 07:47:37;;;;;;;15.52;13.93;;;;;;;23.03;63.78;100015.91;5091913;28;20064;-70
2022/07/21 07:50:06;;;;;;;16.60;14.80;;;;;;;23.10;63.84;100016.09;5092682;28;20044;-69
2022/07/21 07:52:32;;;;;;;16.33;14.63;;;;;;;23.13;63.76;100016.59;5093124;28;20051;-70
2022/07/21 07:54:59;;;;;;;16.85;15.13;;;;;;;23.19;63.90;100014.25;5091680;28;20048;-69
2022/07/21 07:57:34;;;;;;;15.77;14.27;;;;;;;23.24;63.64;100018.13;5092703;28;20062;-70
2022/07/21 08:00:03;;;;;;;15.70;14.18;;;;;;;23.29;63.57;100015.81;5092516;28;20044;-69
2022/07/21 08:02:46;;;;;;;15.57;14.02;;;;;;;23.36;63.84;100013.31;5092914;28;20055;-70
2022/07/21 08:05:13;;;;;;;15.73;14.13;;;;;;;23.45;63.83;100016.88;5091308;28;20052;-69
2022/07/21 08:07:40;;;;;;;15.45;13.95;;;;;;;23.52;63.70;100014.38;5092759;28;20048;-69
2022/07/21 08:10:09;;;;;;;15.32;13.82;;;;;;;23.60;63.16;100018.91;5091273;28;20051;-70
2022/07/21 08:12:55;;;;;;;15.43;13.82;;;;;;;23.67;62.68;100015.38;5092970;28;20475;-69
2022/07/21 08:15:22;;;;;;;15.93;14.27;;;;;;;23.73;62.43;100010.34;5091267;28;20495;-69
2022/07/21 08:17:49;;;;;;;16.70;15.00;;;;;;;23.77;62.87;100003.63;5092601;28;20060;-69
2022/07/21 08:20:15;;;;;;;15.23;13.63;;;;;;;23.83;62.39;100008.31;5092187;28;20039;-69
2022/07/21 08:22:42;;;;;;;15.02;13.57;;;;;;;23.89;62.83;100009.50;5092345;28;20056;-69
2022/07/21 08:25:09;;;;;;;17.48;15.73;;;;;;;23.97;62.48;100011.34;5092433;28;20055;-69
2022/07/21 08:27:35;;;;;;;16.58;14.00;;;;;;;24.02;62.71;100006.28;5092280;28;20040;-70
2022/07/21 08:30:03;;;;;;;17.00;15.30;;;;;;;24.07;62.12;100007.47;5092089;28;20447;-69
2022/07/21 08:32:29;;;;;;;15.65;14.05;;;;;;;24.14;61.80;100010.34;5092176;28;20052;-70
2022/07/21 08:34:56;;;;;;;17.27;14.32;;;;;;;24.17;61.41;100015.38;5092079;28;20059;-68
2022/07/21 08:37:22;;;;;;;16.27;14.55;;;;;;;24.16;61.35;100016.41;5090847;28;20070;-69
2022/07/21 08:39:49;;;;;;;16.88;15.07;;;;;;;24.16;61.36;100020.94;5091170;28;20047;-69
2022/07/21 08:42:16;;;;;;;16.80;15.10;;;;;;;24.14;61.08;100014.91;5091879;28;20044;-69
2022/07/21 08:44:43;;;;;;;17.05;15.35;;;;;;;24.12;60.99;100023.13;5090799;28;20149;-69
2022/07/21 08:47:10;;;;;;;17.70;15.82;;;;;;;24.11;60.93;100024.13;5092000;28;20055;-69
2022/07/21 08:49:38;;;;;;;18.73;16.67;;;;;;;24.08;61.06;100014.50;5091479;28;20048;-68
2022/07/21 08:52:07;;;;;;;17.80;16.23;;;;;;;24.07;61.23;100022.78;5091934;28;20396;-69
2022/07/21 08:54:34;;;;;;;18.70;16.77;;;;;;;24.07;61.32;100017.41;5092091;28;20067;-68
2022/07/21 08:57:00;;;;;;;18.17;16.55;;;;;;;24.05;61.17;100014.88;5091756;28;20117;-69
2022/07/21 08:59:29;;;;;;;18.88;16.98;;;;;;;24.06;60.80;100011.16;5091530;28;20048;-70
2022/07/21 09:01:57;;;;;;;18.55;16.70;;;;;;;24.06;61.25;100016.53;5091493;28;20484;-69
2022/07/21 09:04:29;;;;;;;18.63;16.73;;;;;;;24.05;61.13;100012.19;5090418;28;20052;-68
2022/07/21 09:07:06;;;;;;;17.83;16.13;;;;;;;24.11;61.16;100010.66;5090425;28;20510;-68
2022/07/21 09:09:35;;;;;;;18.27;16.52;;;;;;;24.15;61.37;100017.38;5090132;28;20075;-69
2022/07/21 09:12:03;;;;;;;18.70;16.90;;;;;;;24.22;61.80;100014.84;5090193;28;20052;-70
2022/07/21 09:14:32;;;;;;;18.90;17.00;;;;;;;24.29;61.63;100013.16;5090158;28;20056;-69
2022/07/21 09:17:01;;;;;;;17.05;15.15;;;;;;;24.37;61.28;100012.31;5091771;28;20052;-70
2022/07/21 09:19:38;;;;;;;16.02;14.48;;;;;;;24.44;61.27;100013.31;5090029;28;20139;-68
2022/07/21 09:22:11;;;;;;;16.92;15.32;;;;;;;24.50;60.59;100017.16;5091173;28;20051;-68
2022/07/21 09:24:40;;;;;;;14.55;13.15;;;;;;;24.52;60.10;100007.03;5091234;28;20055;-69
2022/07/21 09:27:23;;;;;;;15.10;13.57;;;;;;;24.52;60.74;100015.13;5091132;28;20052;-69
2022/07/21 09:29:58;;;;;;;16.08;14.05;;;;;;;24.51;60.28;100026.09;5091059;28;20094;-69
2022/07/21 09:32:31;;;;;;;14.60;13.05;;;;;;;24.53;60.09;100016.81;5089802;28;20071;-70
2022/07/21 09:35:03;;;;;;;;;;;;;;;24.52;60.17;100025.06;5091613;28;20055;-70
2022/07/21 09:37:34;;;;;;;12.52;11.27;;;;;;;24.58;59.30;100018.97;5091013;28;19928;-70
2022/07/21 09:40:08;;;;;;;14.82;12.70;;;;;;;24.55;58.84;100017.47;5090805;28;20385;-69
2022/07/21 09:42:39;;;;;;;15.52;13.82;;;;;;;24.54;59.03;100021.19;5089623;28;20075;-70
2022/07/21 09:45:12;;;;;;;14.68;13.27;;;;;;;24.52;59.48;100023.19;5089731;28;20109;-70
2022/07/21 09:47:40;;;;;;;15.55;13.85;;;;;;;24.54;59.12;100034.63;5090868;28;20491;-70
2022/07/21 09:50:09;;;;;;;15.15;13.70;;;;;;;24.54;59.25;100025.72;5089717;28;20083;-70
2022/07/21 09:52:57;;;;;;;17.20;15.48;;;;;;;24.55;59.14;100022.84;5090968;28;20134;-69
2022/07/21 09:55:24;;;;;;;16.65;15.02;;;;;;;24.55;59.30;100027.38;5090796;28;20052;-70
2022/07/21 09:57:51;;;;;;;18.00;16.25;;;;;;;24.52;59.51;100025.88;5090718;28;20105;-69
2022/07/21 10:00:19;;;;;;;17.77;15.98;;;;;;;24.49;59.61;100031.63;5090399;28;20044;-70
2022/07/21 10:02:47;;;;;;;18.48;15.02;;;;;;;24.47;59.77;100033.63;5090542;28;20047;-69
2022/07/21 10:05:18;;;;;;;16.27;14.68;;;;;;;24.47;60.10;100039.03;5090787;28;20052;-70
2022/07/21 10:07:47;;;;;;;17.25;15.45;;;;;;;24.50;59.44;100032.44;5090550;28;20474;-70
2022/07/21 10:10:15;;;;;;;15.77;14.15;;;;;;;24.50;59.70;100036.00;5090411;28;20071;-70
2022/07/21 10:12:47;;;;;;;16.40;14.75;;;;;;;24.51;59.50;100037.66;5089548;28;20048;-69
2022/07/21 10:15:15;;;;;;;17.10;14.23;;;;;;;24.52;59.76;100033.97;5089608;28;20116;-69
2022/07/21 10:17:44;;;;;;;17.95;16.15;;;;;;;24.52;59.25;100031.25;5090663;28;20404;-69
2022/07/21 10:20:29;;;;;;;17.10;15.07;;;;;;;24.47;59.55;100033.63;5090417;28;20063;-69
2022/07/21 10:23:11;;;;;;;17.40;14.27;;;;;;;24.49;59.63;100031.63;5090533;28;20044;-69
2022/07/21 10:25:46;;;;;;;16.00;14.30;;;;;;;24.52;58.93;100030.44;5089568;28;20076;-70
2022/07/21 10:28:20;;;;;;;16.33;13.68;;;;;;;24.51;59.27;100028.78;5090337;28;20555;-69
2022/07/21 10:30:50;;;;;;;15.35;13.77;;;;;;;24.52;59.36;100025.88;5089141;28;20048;-70
2022/07/21 10:33:20;;;;;;;18.00;15.10;;;;;;;24.50;58.70;100027.91;5090250;28;20048;-70
2022/07/21 10:35:49;;;;;;;18.17;16.27;;;;;;;24.49;nan;100038.84;5090407;28;20071;-70
2022/07/21 10:38:27;;;;;;;16.77;14.27;;;;;;;24.37;59.56;100025.75;5090397;28;20048;-69
2022/07/21 10:40:55;;;;;;;15.40;13.80;;;;;;;24.32;58.88;100042.44;5090364;28;20055;-70
2022/07/21 10:43:27;;;;;;;17.75;16.02;;;;;;;24.22;59.35;100032.84;5090425;28;20048;-69
2022/07/21 10:45:55;;;;;;;17.45;15.63;;;;;;;24.10;59.43;100032.34;5090312;28;20048;-70
2022/07/21 10:48:37;;;;;;;18.10;14.50;;;;;;;23.92;59.96;100033.38;5089929;28;20109;-69
2022/07/21 10:51:07;;;;;;;16.10;14.50;;;;;;;23.86;60.67;100032.19;5090400;28;20060;-70
2022/07/21 10:53:33;;;;;;;16.98;14.13;;;;;;;23.81;60.68;100034.53;5090152;28;20055;-70
2022/07/21 10:56:01;;;;;;;15.95;13.63;;;;;;;23.77;61.16;100031.34;5090307;28;20056;-69
2022/07/21 10:58:42;;;;;;;14.75;13.25;;;;;;;23.72;62.27;100032.84;5090021;28;20075;-69
2022/07/21 11:01:15;;;;;;;14.98;13.38;;;;;;;23.73;61.86;100029.97;5090509;28;20515;-70
2022/07/21 11:04:06;;;;;;;18.35;14.07;;;;;;;23.73;62.96;100029.97;5094108;28;20079;-69
2022/07/21 11:06:34;;;;;;;17.27;13.77;;;;;;;23.82;62.35;100036.22;5092645;28;20050;-70
2022/07/21 11:09:04;;;;;;;14.20;12.70;;;;;;;23.87;62.42;100033.00;5093608;28;20044;-70
2022/07/21 11:11:33;;;;;;;15.27;13.70;;;;;;;23.93;62.33;100029.66;5093803;28;20097;-69
2022/07/21 11:14:08;;;;;;;15.98;14.45;;;;;;;24.01;63.70;100026.97;5092633;28;20056;-70
2022/07/21 11:16:41;;;;;;;13.98;12.60;;;;;;;24.12;63.50;100022.28;5092625;28;20482;-70
2022/07/21 11:19:34;;;;;;;18.38;13.60;;;;;;;24.24;64.98;100029.00;5093339;28;20110;-70
2022/07/21 11:22:05;;;;;;;14.05;12.68;;;;;;;24.45;64.08;100027.59;5092372;28;20044;-69
2022/07/21 11:24:32;;;;;;;13.63;11.93;;;;;;;24.64;63.13;100023.69;5092375;28;20048;-70
2022/07/21 11:27:07;;;;;;;14.57;12.25;;;;;;;24.84;62.57;100021.44;5093497;28;20093;-70
2022/07/21 11:29:36;;;;;;;13.82;11.80;;;;;;;25.09;61.61;100012.41;5093143;28;20056;-70
2022/07/21 11:32:05;;;;;;;12.10;10.80;;;;;;;25.32;62.02;100015.13;5093177;28;20048;-70